map of FUL home
FUL - Airport
Location
City:  Fullerton, California, United States
Name:Fullerton Municipal Airport
ICAO:KFUL
IATA:FUL
FAA LID:FUL

Details
Type:Airport (Airfield)
Use:Public/Civil
Latitude:33°52'19"N (33.872014)
Longitude:117°58'47"W (-117.979783)
Datum:WGS 1984
Elevation:96 ft (29 m)
Variation:11.91°E (WMM2015 magnetic declination)
-0.09° annual change
Runways:1
Longest:3121 × 75 ft (951 × 23 m), paved

Time
Time Zone:UTC-8 (DST-7)
Local Time:

Weather
METAR:KFUL 140853Z AUTO 00000KT 10SM CLR 09/03 A2995 RMK AO2 SLP141 T00890028 55003

Related Locations
Nearby:
Farthest:ZSE: 11479 mi / 18474 km
St-Pierre (St-Pierre de la Réunion) [Pierrefonds], RE

Find:

   beyond  
but within

Other Information
Maps:
NOTAMs:
Links:
Sources:

  
flag of United States
flag of California
  

Airport Diagram

Airport diagram for FUL

Airport diagram PDF

Sectional Chart

Flight Planning
at skyvector.com

Satellite Image

Google Maps Satellite view

 

Copyright © 2004-2017 Karl L. Swartz. All rights reserved.
The Great Circle Mapper name and logo are trademarks of the Great Circle Mapper.
All other trademarks mentioned herein belong to their respective owners.
Please see credits for attibutions and further copyright information.

  Follow gcmap on Facebook Follow gcmap on Twitter Follow gcmap on Google+ GCmap on LinkedIn

hCard Microformat

Geo Microformat